Stacja Pogody Warszawa Praga Północ 


Stacja Pogody
Warszawa Praga Północ

 Szerokość N 52° 15 '43"    Długość E 21° 01' 22"    Wysokość 89 m n.p.m.


Wschód Słońca 04:50 Górowanie Słońca 12:42 Zachód Słońca 20:34 lew
Data juliańska 2456867.928 Odległość Słońca 151894278 km Średn. kątowa Słońca 0,315°
Wschód Księżyca 06:34 Zachód Księżyca 20:43 Wiek Księżyca 1 dni Moon
Widoczność Księżyca 1,78% Odległość Księżyca 405433 km Średn. kątowa Księżyca 0,295°
Dzień krótszy od najdłuższego o: 01:02 Długość dnia 15:44 Imieniny Aidy, Marceli, Wiktora




Warunki pogodowe uaktualnione 28-07-2014, o godzinie 10:09
Temperatura 25.3 °C ↑ Temperatura odczuwalna 27.1 °C
Punkt rosy 18.5 °C Humidex 31.5 °C
Deszcz na godzinę 0.0 mm Wilgotność względna 66% ↑
Prędkość wiatru (średnia) 3 km/h → Prędkość wiatru (podmuch) 6 km/h
Kierunek wiatru S Skala Beaufort'a 2
Ciśnienie względne  1014 hPa Trend ciśnienia powolny spadek
Ciśnienie bezwzględne  1001 hPa Podstawa chmur 922.0 m
METAR EPWA 280800Z 11006KT 070V160 CAVOK 25/18 Q1014 NOSIG
TAF TAF EPWA 280530Z 2806/2906 13008KT CAVOK





 a

Valid XHTML 1.0 Transitional Valid CSS!